Terminal Aerodrome Forecast
Issued by NWS

Home | Current Version | Previous Version | Graphics & Text | Print | Product List | Glossary Off
Versions: 1 2 3 4 5 6 7 8 9 10 11 12 13 14 15 16 17 18 19 20 21 22 23 24 25 26

520
FTUS43 KDDC 030819 AAA
TAFHYS
TAF AMD
KHYS 030819Z 0308/0406 20004KT P6SM VCSH BKN100
     FM030900 35006KT P6SM VCSH OVC090
     FM031500 34009G18KT P6SM SCT080
     FM040000 34007KT P6SM SKC=

USA.gov is the U.S. government's official web portal to all federal, state and local government web resources and services.